sensor_id;sensor_type;location;lat;lon;timestamp;temperature;humidity
41756;DHT22;27435;48.480;9.258;2023-02-01T00:01:56;3.40;99.00
41756;DHT22;27435;48.480;9.258;2023-02-01T00:04:22;3.40;99.00
41756;DHT22;27435;48.480;9.258;2023-02-01T00:06:47;3.40;99.00
41756;DHT22;27435;48.480;9.258;2023-02-01T00:09:13;3.40;99.00
41756;DHT22;27435;48.480;9.258;2023-02-01T00:11:39;3.40;99.00
41756;DHT22;27435;48.480;9.258;2023-02-01T00:14:06;3.40;99.00
41756;DHT22;27435;48.480;9.258;2023-02-01T00:16:32;3.40;99.00
41756;DHT22;27435;48.480;9.258;2023-02-01T00:19:07;3.40;99.00
41756;DHT22;27435;48.480;9.258;2023-02-01T00:21:33;3.40;99.00
41756;DHT22;27435;48.480;9.258;2023-02-01T00:23:59;3.40;99.00
41756;DHT22;27435;48.480;9.258;2023-02-01T00:26:44;3.50;99.00
41756;DHT22;27435;48.480;9.258;2023-02-01T00:29:16;3.50;99.00
41756;DHT22;27435;48.480;9.258;2023-02-01T00:31:42;3.50;99.00
41756;DHT22;27435;48.480;9.258;2023-02-01T00:34:11;3.40;99.00
41756;DHT22;27435;48.480;9.258;2023-02-01T00:36:38;3.40;99.00
41756;DHT22;27435;48.480;9.258;2023-02-01T00:39:04;3.40;99.00
41756;DHT22;27435;48.480;9.258;2023-02-01T00:41:29;3.40;99.00
41756;DHT22;27435;48.480;9.258;2023-02-01T00:43:55;3.40;99.00
41756;DHT22;27435;48.480;9.258;2023-02-01T00:46:21;3.60;99.00
41756;DHT22;27435;48.480;9.258;2023-02-01T00:48:47;3.50;99.00
41756;DHT22;27435;48.480;9.258;2023-02-01T00:51:20;3.50;99.00
41756;DHT22;27435;48.480;9.258;2023-02-01T00:53:46;3.50;99.00
41756;DHT22;27435;48.480;9.258;2023-02-01T00:56:12;3.60;99.00
41756;DHT22;27435;48.480;9.258;2023-02-01T00:58:38;3.60;99.00
41756;DHT22;27435;48.480;9.258;2023-02-01T01:03:33;3.50;99.00
41756;DHT22;27435;48.480;9.258;2023-02-01T01:06:00;3.60;99.00
41756;DHT22;27435;48.480;9.258;2023-02-01T01:08:27;3.70;99.00
41756;DHT22;27435;48.480;9.258;2023-02-01T01:10:53;3.60;99.00
41756;DHT22;27435;48.480;9.258;2023-02-01T01:13:19;3.60;99.00
41756;DHT22;27435;48.480;9.258;2023-02-01T01:15:44;3.60;99.00
41756;DHT22;27435;48.480;9.258;2023-02-01T01:18:10;3.70;99.00
41756;DHT22;27435;48.480;9.258;2023-02-01T01:20:38;3.50;99.00
41756;DHT22;27435;48.480;9.258;2023-02-01T01:23:04;3.50;99.00
41756;DHT22;27435;48.480;9.258;2023-02-01T01:25:30;3.60;99.00
41756;DHT22;27435;48.480;9.258;2023-02-01T01:27:56;3.60;99.00
41756;DHT22;27435;48.480;9.258;2023-02-01T01:30:21;3.60;99.00
41756;DHT22;27435;48.480;9.258;2023-02-01T01:32:47;3.60;99.00
41756;DHT22;27435;48.480;9.258;2023-02-01T01:35:13;3.70;99.00
41756;DHT22;27435;48.480;9.258;2023-02-01T01:37:39;3.70;99.00
41756;DHT22;27435;48.480;9.258;2023-02-01T01:40:06;3.70;99.00
41756;DHT22;27435;48.480;9.258;2023-02-01T01:42:40;3.80;99.00
41756;DHT22;27435;48.480;9.258;2023-02-01T01:45:16;3.80;99.00
41756;DHT22;27435;48.480;9.258;2023-02-01T01:47:47;3.80;99.00
41756;DHT22;27435;48.480;9.258;2023-02-01T01:50:16;3.80;99.00
41756;DHT22;27435;48.480;9.258;2023-02-01T01:52:46;3.80;99.00
41756;DHT22;27435;48.480;9.258;2023-02-01T01:55:17;3.80;99.00
41756;DHT22;27435;48.480;9.258;2023-02-01T01:57:47;3.80;99.00
41756;DHT22;27435;48.480;9.258;2023-02-01T02:00:17;3.90;99.00
41756;DHT22;27435;48.480;9.258;2023-02-01T02:02:47;4.00;99.00
41756;DHT22;27435;48.480;9.258;2023-02-01T02:05:14;4.00;99.00
41756;DHT22;27435;48.480;9.258;2023-02-01T02:07:45;4.00;99.00
41756;DHT22;27435;48.480;9.258;2023-02-01T02:10:12;4.00;99.00
41756;DHT22;27435;48.480;9.258;2023-02-01T02:12:39;4.00;99.00
41756;DHT22;27435;48.480;9.258;2023-02-01T02:15:08;4.00;99.00
41756;DHT22;27435;48.480;9.258;2023-02-01T02:17:50;4.00;99.00
41756;DHT22;27435;48.480;9.258;2023-02-01T02:25:54;4.10;99.00
41756;DHT22;27435;48.480;9.258;2023-02-01T02:28:41;4.10;99.00
41756;DHT22;27435;48.480;9.258;2023-02-01T02:31:47;4.10;99.00
41756;DHT22;27435;48.480;9.258;2023-02-01T02:34:32;4.10;99.00
41756;DHT22;27435;48.480;9.258;2023-02-01T02:37:37;4.20;99.00
41756;DHT22;27435;48.480;9.258;2023-02-01T02:46:03;4.20;99.00
41756;DHT22;27435;48.480;9.258;2023-02-01T02:51:56;4.20;99.00
41756;DHT22;27435;48.480;9.258;2023-02-01T02:54:47;4.20;99.00
41756;DHT22;27435;48.480;9.258;2023-02-01T02:57:30;4.20;99.00
41756;DHT22;27435;48.480;9.258;2023-02-01T03:00:18;4.30;99.00
41756;DHT22;27435;48.480;9.258;2023-02-01T03:03:03;4.30;99.00
41756;DHT22;27435;48.480;9.258;2023-02-01T03:05:49;4.30;99.00
41756;DHT22;27435;48.480;9.258;2023-02-01T03:08:29;4.20;99.00
41756;DHT22;27435;48.480;9.258;2023-02-01T03:10:57;4.30;99.00
41756;DHT22;27435;48.480;9.258;2023-02-01T03:13:33;4.20;99.00
41756;DHT22;27435;48.480;9.258;2023-02-01T03:19:21;4.20;99.00
41756;DHT22;27435;48.480;9.258;2023-02-01T03:24:20;4.20;99.00
41756;DHT22;27435;48.480;9.258;2023-02-01T03:26:53;4.10;99.00
41756;DHT22;27435;48.480;9.258;2023-02-01T03:29:25;4.20;99.00
41756;DHT22;27435;48.480;9.258;2023-02-01T03:31:52;4.10;99.00
41756;DHT22;27435;48.480;9.258;2023-02-01T03:34:18;4.10;99.00
41756;DHT22;27435;48.480;9.258;2023-02-01T03:36:49;4.10;99.00
41756;DHT22;27435;48.480;9.258;2023-02-01T03:39:20;4.10;99.00
41756;DHT22;27435;48.480;9.258;2023-02-01T03:41:53;4.20;99.00
41756;DHT22;27435;48.480;9.258;2023-02-01T03:47:06;4.20;99.00
41756;DHT22;27435;48.480;9.258;2023-02-01T03:49:40;4.20;99.00
41756;DHT22;27435;48.480;9.258;2023-02-01T03:52:20;4.20;99.00
41756;DHT22;27435;48.480;9.258;2023-02-01T03:54:48;4.20;99.00
41756;DHT22;27435;48.480;9.258;2023-02-01T03:57:17;4.20;99.00
41756;DHT22;27435;48.480;9.258;2023-02-01T03:59:46;4.10;99.00
41756;DHT22;27435;48.480;9.258;2023-02-01T04:02:12;4.10;99.00
41756;DHT22;27435;48.480;9.258;2023-02-01T04:04:37;4.10;99.00
41756;DHT22;27435;48.480;9.258;2023-02-01T04:07:03;4.10;99.00
41756;DHT22;27435;48.480;9.258;2023-02-01T04:09:29;4.00;99.00
41756;DHT22;27435;48.480;9.258;2023-02-01T04:11:55;4.00;99.00
41756;DHT22;27435;48.480;9.258;2023-02-01T04:14:20;3.90;99.00
41756;DHT22;27435;48.480;9.258;2023-02-01T04:16:46;4.00;99.00
41756;DHT22;27435;48.480;9.258;2023-02-01T04:19:11;4.00;99.00
41756;DHT22;27435;48.480;9.258;2023-02-01T04:21:37;4.10;99.00
41756;DHT22;27435;48.480;9.258;2023-02-01T04:24:03;4.10;99.00
41756;DHT22;27435;48.480;9.258;2023-02-01T04:26:29;4.00;99.00
41756;DHT22;27435;48.480;9.258;2023-02-01T04:28:54;4.00;99.00
41756;DHT22;27435;48.480;9.258;2023-02-01T04:31:20;4.00;99.00
41756;DHT22;27435;48.480;9.258;2023-02-01T04:33:51;4.00;99.00
41756;DHT22;27435;48.480;9.258;2023-02-01T04:36:18;3.90;99.00
41756;DHT22;27435;48.480;9.258;2023-02-01T04:38:50;4.00;99.00
41756;DHT22;27435;48.480;9.258;2023-02-01T04:41:16;4.10;99.00
41756;DHT22;27435;48.480;9.258;2023-02-01T04:43:46;4.00;99.00
41756;DHT22;27435;48.480;9.258;2023-02-01T04:46:11;4.00;99.00
41756;DHT22;27435;48.480;9.258;2023-02-01T04:48:37;4.10;99.00
41756;DHT22;27435;48.480;9.258;2023-02-01T04:51:02;4.00;99.00
41756;DHT22;27435;48.480;9.258;2023-02-01T04:53:28;4.00;99.00
41756;DHT22;27435;48.480;9.258;2023-02-01T04:55:55;4.00;99.00
41756;DHT22;27435;48.480;9.258;2023-02-01T04:58:20;4.00;99.00
41756;DHT22;27435;48.480;9.258;2023-02-01T05:00:46;3.90;99.00
41756;DHT22;27435;48.480;9.258;2023-02-01T05:03:12;3.90;99.00
41756;DHT22;27435;48.480;9.258;2023-02-01T05:05:37;4.00;99.00
41756;DHT22;27435;48.480;9.258;2023-02-01T05:08:03;4.00;99.00
41756;DHT22;27435;48.480;9.258;2023-02-01T05:10:28;4.00;99.00
41756;DHT22;27435;48.480;9.258;2023-02-01T05:12:54;4.00;99.00
41756;DHT22;27435;48.480;9.258;2023-02-01T05:15:38;4.10;99.00
41756;DHT22;27435;48.480;9.258;2023-02-01T05:18:04;4.00;99.00
41756;DHT22;27435;48.480;9.258;2023-02-01T05:20:32;4.00;99.00
41756;DHT22;27435;48.480;9.258;2023-02-01T05:22:57;4.00;99.00
41756;DHT22;27435;48.480;9.258;2023-02-01T05:25:23;4.00;99.00
41756;DHT22;27435;48.480;9.258;2023-02-01T05:27:48;4.00;99.00
41756;DHT22;27435;48.480;9.258;2023-02-01T05:30:14;4.10;99.00
41756;DHT22;27435;48.480;9.258;2023-02-01T05:32:40;4.10;99.00
41756;DHT22;27435;48.480;9.258;2023-02-01T05:35:06;4.10;99.00
41756;DHT22;27435;48.480;9.258;2023-02-01T05:37:32;4.10;99.00
41756;DHT22;27435;48.480;9.258;2023-02-01T05:39:57;4.10;99.00
41756;DHT22;27435;48.480;9.258;2023-02-01T05:42:23;4.10;99.00
41756;DHT22;27435;48.480;9.258;2023-02-01T05:44:48;4.10;99.00
41756;DHT22;27435;48.480;9.258;2023-02-01T05:47:14;4.10;99.00
41756;DHT22;27435;48.480;9.258;2023-02-01T05:49:39;4.10;99.00
41756;DHT22;27435;48.480;9.258;2023-02-01T05:52:05;4.10;99.00
41756;DHT22;27435;48.480;9.258;2023-02-01T05:54:31;4.20;99.00
41756;DHT22;27435;48.480;9.258;2023-02-01T05:56:56;4.10;99.00
41756;DHT22;27435;48.480;9.258;2023-02-01T05:59:22;4.20;99.00
41756;DHT22;27435;48.480;9.258;2023-02-01T06:01:47;4.20;99.00
41756;DHT22;27435;48.480;9.258;2023-02-01T06:04:13;4.30;99.00
41756;DHT22;27435;48.480;9.258;2023-02-01T06:06:39;4.30;99.00
41756;DHT22;27435;48.480;9.258;2023-02-01T06:09:04;4.30;99.00
41756;DHT22;27435;48.480;9.258;2023-02-01T06:11:30;4.30;99.00
41756;DHT22;27435;48.480;9.258;2023-02-01T06:13:56;4.30;99.00
41756;DHT22;27435;48.480;9.258;2023-02-01T06:16:22;4.30;99.00
41756;DHT22;27435;48.480;9.258;2023-02-01T06:18:48;4.30;99.00
41756;DHT22;27435;48.480;9.258;2023-02-01T06:21:14;4.40;99.00
41756;DHT22;27435;48.480;9.258;2023-02-01T06:23:49;4.30;99.00
41756;DHT22;27435;48.480;9.258;2023-02-01T06:26:15;4.40;99.00
41756;DHT22;27435;48.480;9.258;2023-02-01T06:28:43;4.40;99.00
41756;DHT22;27435;48.480;9.258;2023-02-01T06:31:09;4.40;99.00
41756;DHT22;27435;48.480;9.258;2023-02-01T06:33:35;4.40;99.00
41756;DHT22;27435;48.480;9.258;2023-02-01T06:36:02;4.40;99.00
41756;DHT22;27435;48.480;9.258;2023-02-01T06:38:29;4.40;99.00
41756;DHT22;27435;48.480;9.258;2023-02-01T06:40:56;4.40;99.00
41756;DHT22;27435;48.480;9.258;2023-02-01T06:43:23;4.40;99.00
41756;DHT22;27435;48.480;9.258;2023-02-01T06:45:49;4.30;99.00
41756;DHT22;27435;48.480;9.258;2023-02-01T06:48:15;4.20;99.00
41756;DHT22;27435;48.480;9.258;2023-02-01T06:50:40;4.20;99.00
41756;DHT22;27435;48.480;9.258;2023-02-01T06:53:06;4.10;99.00
41756;DHT22;27435;48.480;9.258;2023-02-01T06:55:32;4.00;99.00
41756;DHT22;27435;48.480;9.258;2023-02-01T06:57:57;4.00;99.00
41756;DHT22;27435;48.480;9.258;2023-02-01T07:00:23;4.00;99.00
41756;DHT22;27435;48.480;9.258;2023-02-01T07:02:49;4.00;99.00
41756;DHT22;27435;48.480;9.258;2023-02-01T07:05:15;4.00;99.00
41756;DHT22;27435;48.480;9.258;2023-02-01T07:07:41;4.00;99.00
41756;DHT22;27435;48.480;9.258;2023-02-01T07:10:07;4.00;99.00
41756;DHT22;27435;48.480;9.258;2023-02-01T07:12:32;4.10;99.00
41756;DHT22;27435;48.480;9.258;2023-02-01T07:14:58;4.10;99.00
41756;DHT22;27435;48.480;9.258;2023-02-01T07:17:24;4.10;99.00
41756;DHT22;27435;48.480;9.258;2023-02-01T07:19:49;4.00;99.00
41756;DHT22;27435;48.480;9.258;2023-02-01T07:22:18;4.00;99.00
41756;DHT22;27435;48.480;9.258;2023-02-01T07:24:44;3.90;99.00
41756;DHT22;27435;48.480;9.258;2023-02-01T07:27:09;3.90;99.00
41756;DHT22;27435;48.480;9.258;2023-02-01T07:29:35;4.00;99.00
41756;DHT22;27435;48.480;9.258;2023-02-01T07:32:01;4.00;99.00
41756;DHT22;27435;48.480;9.258;2023-02-01T07:34:28;4.10;99.00
41756;DHT22;27435;48.480;9.258;2023-02-01T07:36:53;4.10;99.00
41756;DHT22;27435;48.480;9.258;2023-02-01T07:39:19;4.10;99.00
41756;DHT22;27435;48.480;9.258;2023-02-01T07:41:46;4.10;99.00
41756;DHT22;27435;48.480;9.258;2023-02-01T07:44:11;4.10;99.00
41756;DHT22;27435;48.480;9.258;2023-02-01T07:46:37;4.00;99.00
41756;DHT22;27435;48.480;9.258;2023-02-01T07:49:04;4.10;99.00
41756;DHT22;27435;48.480;9.258;2023-02-01T07:51:30;4.00;99.00
41756;DHT22;27435;48.480;9.258;2023-02-01T07:53:55;4.00;99.00
41756;DHT22;27435;48.480;9.258;2023-02-01T07:56:21;4.10;99.00
41756;DHT22;27435;48.480;9.258;2023-02-01T07:58:52;4.00;99.00
41756;DHT22;27435;48.480;9.258;2023-02-01T08:01:24;4.00;99.00
41756;DHT22;27435;48.480;9.258;2023-02-01T08:03:52;4.10;99.00
41756;DHT22;27435;48.480;9.258;2023-02-01T08:06:18;4.20;99.00
41756;DHT22;27435;48.480;9.258;2023-02-01T08:08:45;4.20;99.00
41756;DHT22;27435;48.480;9.258;2023-02-01T08:11:12;4.30;99.00
41756;DHT22;27435;48.480;9.258;2023-02-01T08:13:38;4.30;99.00
41756;DHT22;27435;48.480;9.258;2023-02-01T08:16:06;4.30;99.00
41756;DHT22;27435;48.480;9.258;2023-02-01T08:18:33;4.40;99.00
41756;DHT22;27435;48.480;9.258;2023-02-01T08:21:20;4.50;99.00
41756;DHT22;27435;48.480;9.258;2023-02-01T08:23:47;4.50;99.00
41756;DHT22;27435;48.480;9.258;2023-02-01T08:28:46;4.60;99.00
41756;DHT22;27435;48.480;9.258;2023-02-01T08:31:14;4.60;99.00
41756;DHT22;27435;48.480;9.258;2023-02-01T08:33:41;4.60;99.00
41756;DHT22;27435;48.480;9.258;2023-02-01T08:36:09;4.60;99.00
41756;DHT22;27435;48.480;9.258;2023-02-01T08:38:36;4.70;99.00
41756;DHT22;27435;48.480;9.258;2023-02-01T08:41:07;4.70;99.00
41756;DHT22;27435;48.480;9.258;2023-02-01T08:43:32;4.60;99.00
41756;DHT22;27435;48.480;9.258;2023-02-01T08:45:58;4.60;99.00
41756;DHT22;27435;48.480;9.258;2023-02-01T08:48:24;4.50;99.00
41756;DHT22;27435;48.480;9.258;2023-02-01T08:50:49;4.50;99.00
41756;DHT22;27435;48.480;9.258;2023-02-01T08:53:15;4.50;99.00
41756;DHT22;27435;48.480;9.258;2023-02-01T08:55:40;4.60;99.00
41756;DHT22;27435;48.480;9.258;2023-02-01T08:58:07;4.70;99.00
41756;DHT22;27435;48.480;9.258;2023-02-01T09:00:33;4.80;99.00
41756;DHT22;27435;48.480;9.258;2023-02-01T09:02:59;4.90;99.00
41756;DHT22;27435;48.480;9.258;2023-02-01T09:05:24;4.90;99.00
41756;DHT22;27435;48.480;9.258;2023-02-01T09:07:52;5.00;99.00
41756;DHT22;27435;48.480;9.258;2023-02-01T09:10:18;5.00;99.00
41756;DHT22;27435;48.480;9.258;2023-02-01T09:12:44;5.00;99.00
41756;DHT22;27435;48.480;9.258;2023-02-01T09:15:09;5.00;99.00
41756;DHT22;27435;48.480;9.258;2023-02-01T09:17:36;5.00;99.00
41756;DHT22;27435;48.480;9.258;2023-02-01T09:20:02;4.90;99.00
41756;DHT22;27435;48.480;9.258;2023-02-01T09:22:28;4.80;99.00
41756;DHT22;27435;48.480;9.258;2023-02-01T09:24:54;4.80;99.00
41756;DHT22;27435;48.480;9.258;2023-02-01T09:27:19;4.70;99.00
41756;DHT22;27435;48.480;9.258;2023-02-01T09:29:45;4.70;99.00
41756;DHT22;27435;48.480;9.258;2023-02-01T09:32:14;4.60;99.00
41756;DHT22;27435;48.480;9.258;2023-02-01T09:34:40;4.60;99.00
41756;DHT22;27435;48.480;9.258;2023-02-01T09:37:06;4.50;99.00
41756;DHT22;27435;48.480;9.258;2023-02-01T09:39:32;4.50;99.00
41756;DHT22;27435;48.480;9.258;2023-02-01T09:47:21;4.50;99.00
41756;DHT22;27435;48.480;9.258;2023-02-01T09:52:43;4.50;99.00
41756;DHT22;27435;48.480;9.258;2023-02-01T09:55:20;4.50;99.00
41756;DHT22;27435;48.480;9.258;2023-02-01T09:57:57;4.60;99.00
41756;DHT22;27435;48.480;9.258;2023-02-01T10:00:27;4.60;99.00
41756;DHT22;27435;48.480;9.258;2023-02-01T10:02:55;4.70;99.00
41756;DHT22;27435;48.480;9.258;2023-02-01T10:10:57;4.80;99.00
41756;DHT22;27435;48.480;9.258;2023-02-01T10:19:36;5.10;98.70
41756;DHT22;27435;48.480;9.258;2023-02-01T10:22:09;5.00;99.00
41756;DHT22;27435;48.480;9.258;2023-02-01T10:24:42;5.00;98.20
41756;DHT22;27435;48.480;9.258;2023-02-01T10:27:23;5.00;98.00
41756;DHT22;27435;48.480;9.258;2023-02-01T10:29:54;5.00;97.80
41756;DHT22;27435;48.480;9.258;2023-02-01T10:32:24;5.00;97.90
41756;DHT22;27435;48.480;9.258;2023-02-01T10:34:58;5.00;97.30
41756;DHT22;27435;48.480;9.258;2023-02-01T10:37:28;5.00;96.60
41756;DHT22;27435;48.480;9.258;2023-02-01T10:39:56;5.10;96.50
41756;DHT22;27435;48.480;9.258;2023-02-01T10:42:27;5.00;95.50
41756;DHT22;27435;48.480;9.258;2023-02-01T10:44:59;5.00;95.80
41756;DHT22;27435;48.480;9.258;2023-02-01T10:47:26;5.10;96.10
41756;DHT22;27435;48.480;9.258;2023-02-01T10:50:03;5.20;95.30
41756;DHT22;27435;48.480;9.258;2023-02-01T10:52:38;5.30;94.60
41756;DHT22;27435;48.480;9.258;2023-02-01T10:55:34;5.30;94.70
41756;DHT22;27435;48.480;9.258;2023-02-01T10:58:05;5.20;94.70
41756;DHT22;27435;48.480;9.258;2023-02-01T11:01:24;5.30;95.10
41756;DHT22;27435;48.480;9.258;2023-02-01T11:03:39;5.40;95.00
41756;DHT22;27435;48.480;9.258;2023-02-01T11:08:48;5.40;94.90
41756;DHT22;27435;48.480;9.258;2023-02-01T11:11:14;5.40;94.90
41756;DHT22;27435;48.480;9.258;2023-02-01T11:13:40;5.50;94.40
41756;DHT22;27435;48.480;9.258;2023-02-01T11:16:08;5.50;94.00
41756;DHT22;27435;48.480;9.258;2023-02-01T11:18:37;5.50;94.40
41756;DHT22;27435;48.480;9.258;2023-02-01T11:21:05;5.40;94.90
41756;DHT22;27435;48.480;9.258;2023-02-01T11:23:32;5.30;95.40
41756;DHT22;27435;48.480;9.258;2023-02-01T11:26:14;5.40;95.30
41756;DHT22;27435;48.480;9.258;2023-02-01T11:28:50;5.30;95.70
41756;DHT22;27435;48.480;9.258;2023-02-01T11:31:18;5.20;95.50
41756;DHT22;27435;48.480;9.258;2023-02-01T11:33:51;5.10;96.40
41756;DHT22;27435;48.480;9.258;2023-02-01T11:36:22;5.10;96.30
41756;DHT22;27435;48.480;9.258;2023-02-01T11:39:17;5.10;95.80
41756;DHT22;27435;48.480;9.258;2023-02-01T11:42:13;5.10;96.30
41756;DHT22;27435;48.480;9.258;2023-02-01T11:44:44;5.20;96.40
41756;DHT22;27435;48.480;9.258;2023-02-01T11:47:30;5.10;95.90
41756;DHT22;27435;48.480;9.258;2023-02-01T11:50:02;5.00;96.00
41756;DHT22;27435;48.480;9.258;2023-02-01T12:17:47;5.50;95.20
41756;DHT22;27435;48.480;9.258;2023-02-01T12:25:30;5.50;93.70
41756;DHT22;27435;48.480;9.258;2023-02-01T12:31:15;5.30;94.10
41756;DHT22;27435;48.480;9.258;2023-02-01T12:36:46;5.20;94.00
41756;DHT22;27435;48.480;9.258;2023-02-01T12:39:24;5.10;94.40
41756;DHT22;27435;48.480;9.258;2023-02-01T12:44:27;5.10;94.70
41756;DHT22;27435;48.480;9.258;2023-02-01T12:47:06;5.20;94.60
41756;DHT22;27435;48.480;9.258;2023-02-01T12:49:45;5.10;93.80
41756;DHT22;27435;48.480;9.258;2023-02-01T12:52:36;5.10;93.80
41756;DHT22;27435;48.480;9.258;2023-02-01T12:55:31;5.10;94.00
41756;DHT22;27435;48.480;9.258;2023-02-01T12:58:14;5.00;94.10
41756;DHT22;27435;48.480;9.258;2023-02-01T13:00:44;5.00;93.90
41756;DHT22;27435;48.480;9.258;2023-02-01T13:03:26;5.10;93.60
41756;DHT22;27435;48.480;9.258;2023-02-01T13:08:48;5.10;93.80
41756;DHT22;27435;48.480;9.258;2023-02-01T13:11:38;5.10;93.60
41756;DHT22;27435;48.480;9.258;2023-02-01T13:17:03;5.00;94.80
41756;DHT22;27435;48.480;9.258;2023-02-01T13:22:06;4.90;94.80
41756;DHT22;27435;48.480;9.258;2023-02-01T13:24:43;5.00;95.20
41756;DHT22;27435;48.480;9.258;2023-02-01T13:27:14;5.00;95.30
41756;DHT22;27435;48.480;9.258;2023-02-01T13:32:24;4.80;95.30
41756;DHT22;27435;48.480;9.258;2023-02-01T13:38:08;4.80;95.40
41756;DHT22;27435;48.480;9.258;2023-02-01T13:43:06;4.80;95.80
41756;DHT22;27435;48.480;9.258;2023-02-01T13:45:36;4.80;95.80
41756;DHT22;27435;48.480;9.258;2023-02-01T13:48:14;4.80;96.00
41756;DHT22;27435;48.480;9.258;2023-02-01T13:50:43;4.90;96.00
41756;DHT22;27435;48.480;9.258;2023-02-01T13:56:32;4.80;96.40
41756;DHT22;27435;48.480;9.258;2023-02-01T13:58:38;4.70;96.40
41756;DHT22;27435;48.480;9.258;2023-02-01T14:03:53;5.00;95.20
41756;DHT22;27435;48.480;9.258;2023-02-01T14:16:39;4.90;95.60
41756;DHT22;27435;48.480;9.258;2023-02-01T14:19:09;4.90;96.20
41756;DHT22;27435;48.480;9.258;2023-02-01T14:21:47;4.80;96.70
41756;DHT22;27435;48.480;9.258;2023-02-01T14:24:33;4.80;96.80
41756;DHT22;27435;48.480;9.258;2023-02-01T14:27:13;4.80;96.70
41756;DHT22;27435;48.480;9.258;2023-02-01T14:29:44;4.80;96.80
41756;DHT22;27435;48.480;9.258;2023-02-01T14:32:21;4.70;97.20
41756;DHT22;27435;48.480;9.258;2023-02-01T14:40:02;4.90;96.30
41756;DHT22;27435;48.480;9.258;2023-02-01T14:42:49;4.80;96.50
41756;DHT22;27435;48.480;9.258;2023-02-01T14:58:53;4.80;96.40
41756;DHT22;27435;48.480;9.258;2023-02-01T15:09:45;4.80;96.40
41756;DHT22;27435;48.480;9.258;2023-02-01T15:14:42;4.70;96.50
41756;DHT22;27435;48.480;9.258;2023-02-01T15:17:26;4.80;96.50
41756;DHT22;27435;48.480;9.258;2023-02-01T15:20:12;4.80;96.40
41756;DHT22;27435;48.480;9.258;2023-02-01T15:22:38;4.80;96.80
41756;DHT22;27435;48.480;9.258;2023-02-01T15:25:04;4.80;96.30
41756;DHT22;27435;48.480;9.258;2023-02-01T15:27:31;4.90;96.20
41756;DHT22;27435;48.480;9.258;2023-02-01T15:30:18;4.90;95.70
41756;DHT22;27435;48.480;9.258;2023-02-01T15:32:44;4.90;95.90
41756;DHT22;27435;48.480;9.258;2023-02-01T15:35:37;4.90;96.20
41756;DHT22;27435;48.480;9.258;2023-02-01T15:38:31;4.90;96.20
41756;DHT22;27435;48.480;9.258;2023-02-01T15:41:13;4.80;96.50
41756;DHT22;27435;48.480;9.258;2023-02-01T15:46:44;4.80;96.50
41756;DHT22;27435;48.480;9.258;2023-02-01T15:49:20;4.80;96.80
41756;DHT22;27435;48.480;9.258;2023-02-01T15:51:47;4.80;96.60
41756;DHT22;27435;48.480;9.258;2023-02-01T15:54:31;4.80;96.70
41756;DHT22;27435;48.480;9.258;2023-02-01T15:57:01;4.70;96.70
41756;DHT22;27435;48.480;9.258;2023-02-01T16:00:00;4.70;96.80
41756;DHT22;27435;48.480;9.258;2023-02-01T16:05:04;4.70;96.80
41756;DHT22;27435;48.480;9.258;2023-02-01T16:07:32;4.80;96.70
41756;DHT22;27435;48.480;9.258;2023-02-01T16:10:01;4.80;96.40
41756;DHT22;27435;48.480;9.258;2023-02-01T16:12:33;4.80;96.50
41756;DHT22;27435;48.480;9.258;2023-02-01T16:15:01;4.80;96.40
41756;DHT22;27435;48.480;9.258;2023-02-01T16:17:27;4.80;96.20
41756;DHT22;27435;48.480;9.258;2023-02-01T16:19:52;4.80;96.30
41756;DHT22;27435;48.480;9.258;2023-02-01T16:22:18;4.80;96.20
41756;DHT22;27435;48.480;9.258;2023-02-01T16:24:44;4.80;96.30
41756;DHT22;27435;48.480;9.258;2023-02-01T16:27:09;4.80;96.20
41756;DHT22;27435;48.480;9.258;2023-02-01T16:29:35;4.70;96.30
41756;DHT22;27435;48.480;9.258;2023-02-01T16:32:01;4.70;96.20
41756;DHT22;27435;48.480;9.258;2023-02-01T16:34:26;4.70;96.50
41756;DHT22;27435;48.480;9.258;2023-02-01T16:36:52;4.70;96.20
41756;DHT22;27435;48.480;9.258;2023-02-01T16:39:21;4.80;96.30
41756;DHT22;27435;48.480;9.258;2023-02-01T16:41:47;4.70;95.90
41756;DHT22;27435;48.480;9.258;2023-02-01T16:44:12;4.70;96.00
41756;DHT22;27435;48.480;9.258;2023-02-01T16:46:44;4.70;96.30
41756;DHT22;27435;48.480;9.258;2023-02-01T16:49:21;4.70;96.30
41756;DHT22;27435;48.480;9.258;2023-02-01T16:51:49;4.70;96.40
41756;DHT22;27435;48.480;9.258;2023-02-01T16:54:15;4.70;96.50
41756;DHT22;27435;48.480;9.258;2023-02-01T16:56:41;4.70;96.20
41756;DHT22;27435;48.480;9.258;2023-02-01T16:59:09;4.70;96.50
41756;DHT22;27435;48.480;9.258;2023-02-01T17:01:35;4.70;96.30
41756;DHT22;27435;48.480;9.258;2023-02-01T17:04:03;4.70;96.20
41756;DHT22;27435;48.480;9.258;2023-02-01T17:06:29;4.70;96.30
41756;DHT22;27435;48.480;9.258;2023-02-01T17:08:58;4.70;96.50
41756;DHT22;27435;48.480;9.258;2023-02-01T17:11:24;4.70;96.10
41756;DHT22;27435;48.480;9.258;2023-02-01T17:13:50;4.60;96.40
41756;DHT22;27435;48.480;9.258;2023-02-01T17:16:20;4.70;96.10
41756;DHT22;27435;48.480;9.258;2023-02-01T17:18:54;4.70;96.30
41756;DHT22;27435;48.480;9.258;2023-02-01T17:21:21;4.60;96.80
41756;DHT22;27435;48.480;9.258;2023-02-01T17:23:47;4.60;96.80
41756;DHT22;27435;48.480;9.258;2023-02-01T17:26:12;4.60;96.70
41756;DHT22;27435;48.480;9.258;2023-02-01T17:28:38;4.70;96.60
41756;DHT22;27435;48.480;9.258;2023-02-01T17:31:04;4.70;96.80
41756;DHT22;27435;48.480;9.258;2023-02-01T17:33:32;4.60;96.90
41756;DHT22;27435;48.480;9.258;2023-02-01T17:35:58;4.60;97.00
41756;DHT22;27435;48.480;9.258;2023-02-01T17:38:24;4.60;97.10
41756;DHT22;27435;48.480;9.258;2023-02-01T17:40:50;4.60;97.20
41756;DHT22;27435;48.480;9.258;2023-02-01T17:43:21;4.60;97.30
41756;DHT22;27435;48.480;9.258;2023-02-01T17:45:56;4.60;97.30
41756;DHT22;27435;48.480;9.258;2023-02-01T17:48:23;4.70;97.10
41756;DHT22;27435;48.480;9.258;2023-02-01T17:50:50;4.60;97.50
41756;DHT22;27435;48.480;9.258;2023-02-01T17:53:19;4.60;97.60
41756;DHT22;27435;48.480;9.258;2023-02-01T17:55:49;4.60;97.70
41756;DHT22;27435;48.480;9.258;2023-02-01T17:58:15;4.70;97.80
41756;DHT22;27435;48.480;9.258;2023-02-01T18:00:42;4.70;97.60
41756;DHT22;27435;48.480;9.258;2023-02-01T18:03:21;4.60;97.70
41756;DHT22;27435;48.480;9.258;2023-02-01T18:05:48;4.60;97.60
41756;DHT22;27435;48.480;9.258;2023-02-01T18:08:16;4.60;97.80
41756;DHT22;27435;48.480;9.258;2023-02-01T18:10:42;4.60;97.80
41756;DHT22;27435;48.480;9.258;2023-02-01T18:13:10;4.50;97.90
41756;DHT22;27435;48.480;9.258;2023-02-01T18:15:36;4.50;98.00
41756;DHT22;27435;48.480;9.258;2023-02-01T18:18:03;4.50;97.80
41756;DHT22;27435;48.480;9.258;2023-02-01T18:20:28;4.50;97.90
41756;DHT22;27435;48.480;9.258;2023-02-01T18:22:54;4.50;97.90
41756;DHT22;27435;48.480;9.258;2023-02-01T18:25:26;4.60;97.90
41756;DHT22;27435;48.480;9.258;2023-02-01T18:27:53;4.60;98.10
41756;DHT22;27435;48.480;9.258;2023-02-01T18:30:21;4.50;99.00
41756;DHT22;27435;48.480;9.258;2023-02-01T18:32:48;4.40;99.00
41756;DHT22;27435;48.480;9.258;2023-02-01T18:35:19;4.40;99.00
41756;DHT22;27435;48.480;9.258;2023-02-01T18:37:46;4.40;99.00
41756;DHT22;27435;48.480;9.258;2023-02-01T18:40:20;4.50;99.00